createdAt,value
2023-04-28T00:00:21.779Z,100282.47
2023-04-28T00:02:49.158Z,100277.94
2023-04-28T00:05:16.669Z,100274.25
2023-04-28T00:07:44.086Z,100274.47
2023-04-28T00:10:11.715Z,100272.69
2023-04-28T00:12:38.876Z,100279.72
2023-04-28T00:15:06.697Z,100270.41
2023-04-28T00:17:34.355Z,100279.00
2023-04-28T00:20:01.520Z,100286.31
2023-04-28T00:22:28.911Z,100281.06
2023-04-28T00:24:56.097Z,100284.66
2023-04-28T00:27:23.228Z,100275.50
2023-04-28T00:29:50.391Z,100280.75
2023-04-28T00:32:17.656Z,100279.28
2023-04-28T00:34:44.850Z,100275.00
2023-04-28T00:37:12.050Z,100274.53
2023-04-28T00:39:39.276Z,100265.75
2023-04-28T00:42:06.654Z,100271.00
2023-04-28T00:44:33.792Z,100269.81
2023-04-28T00:47:01.480Z,100269.66
2023-04-28T00:49:29.796Z,100273.28
2023-04-28T00:51:58.067Z,100270.44
2023-04-28T00:54:25.985Z,100270.56
2023-04-28T00:56:54.608Z,100260.69
2023-04-28T00:59:21.732Z,100259.66
2023-04-28T01:01:50.138Z,100252.53
2023-04-28T01:04:21.311Z,100246.31
2023-04-28T01:06:51.132Z,100248.09
2023-04-28T01:09:18.321Z,100255.00
2023-04-28T01:11:46.052Z,100249.78
2023-04-28T01:14:34.006Z,100253.81
2023-04-28T01:17:01.843Z,100254.41
2023-04-28T01:19:29.698Z,100249.84
2023-04-28T01:21:56.907Z,100239.56
2023-04-28T01:24:25.791Z,100234.63
2023-04-28T01:26:53.502Z,100248.56
2023-04-28T01:29:22.844Z,100246.41
2023-04-28T01:31:50.043Z,100248.59
2023-04-28T01:34:18.194Z,100250.97
2023-04-28T01:36:46.063Z,100262.19
2023-04-28T01:39:13.794Z,100260.41
2023-04-28T01:41:42.270Z,100256.78
2023-04-28T01:44:09.717Z,100265.19
2023-04-28T01:46:37.018Z,100264.94
2023-04-28T01:49:04.764Z,100263.16
2023-04-28T01:51:32.759Z,100265.78
2023-04-28T01:53:59.941Z,100261.19
2023-04-28T01:56:27.184Z,100263.72
2023-04-28T01:58:56.510Z,100269.97
2023-04-28T02:01:23.936Z,100266.44
2023-04-28T02:03:51.458Z,100275.97
2023-04-28T02:06:18.754Z,100277.00
2023-04-28T02:08:45.916Z,100286.38
2023-04-28T02:11:13.497Z,100289.31
2023-04-28T02:13:41.574Z,100303.25
2023-04-28T02:16:08.772Z,100304.72
2023-04-28T02:18:36.315Z,100303.91
2023-04-28T02:21:13.157Z,100302.84
2023-04-28T02:23:40.685Z,100302.69
2023-04-28T02:26:08.161Z,100303.28
2023-04-28T02:28:35.356Z,100299.34
2023-04-28T02:31:08.880Z,100304.50
2023-04-28T02:33:37.682Z,100306.13
2023-04-28T02:36:06.710Z,100308.34
2023-04-28T02:38:34.591Z,100311.63
2023-04-28T02:41:09.054Z,100312.47
2023-04-28T02:43:37.746Z,100308.53
2023-04-28T02:46:05.678Z,100302.94
2023-04-28T02:48:35.488Z,100302.41
2023-04-28T02:51:03.552Z,100297.19
2023-04-28T02:53:31.341Z,100284.75
2023-04-28T02:55:59.457Z,100278.53
2023-04-28T02:58:29.821Z,100281.81
2023-04-28T03:00:57.000Z,100273.47
2023-04-28T03:03:24.261Z,100264.16
2023-04-28T03:05:51.598Z,100264.41
2023-04-28T03:08:20.773Z,100266.53
2023-04-28T03:10:47.990Z,100256.06
2023-04-28T03:13:15.190Z,100254.63
2023-04-28T03:15:43.867Z,100247.75
2023-04-28T03:18:11.207Z,100251.94
2023-04-28T03:20:39.041Z,100255.31
2023-04-28T03:23:06.220Z,100254.97
2023-04-28T03:25:33.488Z,100249.91
2023-04-28T03:28:01.307Z,100253.44
2023-04-28T03:30:28.503Z,100264.50
2023-04-28T03:32:57.980Z,100270.81
2023-04-28T03:35:25.234Z,100284.16
2023-04-28T03:37:52.524Z,100284.06
2023-04-28T03:40:19.867Z,100280.03
2023-04-28T03:43:04.966Z,100279.69
2023-04-28T03:45:40.590Z,100281.69
2023-04-28T03:48:09.168Z,100293.34
2023-04-28T03:50:37.017Z,100297.22
2023-04-28T03:53:05.060Z,100305.91
2023-04-28T03:55:32.692Z,100313.91
2023-04-28T03:57:59.830Z,100301.13
2023-04-28T04:00:27.077Z,100296.31
2023-04-28T04:02:56.700Z,100289.47
2023-04-28T04:05:24.438Z,100285.25
2023-04-28T04:07:51.677Z,100274.78
2023-04-28T04:10:18.979Z,100283.31
2023-04-28T04:12:46.303Z,100278.25
2023-04-28T04:15:13.700Z,100286.25
2023-04-28T04:17:43.233Z,100283.56
2023-04-28T04:20:11.132Z,100279.88
2023-04-28T04:22:38.403Z,100281.38
2023-04-28T04:25:06.620Z,100286.59
2023-04-28T04:27:35.413Z,100286.44
2023-04-28T04:30:02.661Z,100288.06
2023-04-28T04:32:29.853Z,100290.75
2023-04-28T04:34:57.443Z,100290.00
2023-04-28T04:37:25.134Z,100285.84
2023-04-28T04:40:03.457Z,100284.38
2023-04-28T04:42:36.145Z,100280.63
2023-04-28T04:45:07.867Z,100284.78
2023-04-28T04:47:36.214Z,100275.97
2023-04-28T04:50:03.886Z,100273.25
2023-04-28T04:52:31.172Z,100280.13
2023-04-28T04:54:59.658Z,100282.66
2023-04-28T04:57:27.246Z,100282.50
2023-04-28T05:00:16.879Z,100292.09
2023-04-28T05:02:44.273Z,100293.97
2023-04-28T05:05:20.316Z,100296.41
2023-04-28T05:07:53.041Z,100287.91
2023-04-28T05:10:21.885Z,100293.63
2023-04-28T05:12:49.410Z,100297.56
2023-04-28T05:15:18.333Z,100295.34
2023-04-28T05:17:59.525Z,100305.53
2023-04-28T05:20:26.793Z,100314.72
2023-04-28T05:22:55.701Z,100316.66
2023-04-28T05:25:22.900Z,100320.44
2023-04-28T05:27:50.085Z,100318.13
2023-04-28T05:30:17.278Z,100333.47
2023-04-28T05:32:44.803Z,100332.09
2023-04-28T05:35:12.225Z,100331.63
2023-04-28T05:37:40.009Z,100329.56
2023-04-28T05:40:08.604Z,100332.56
2023-04-28T05:42:36.059Z,100333.53
2023-04-28T05:45:03.836Z,100339.09
2023-04-28T05:47:31.827Z,100333.31
2023-04-28T05:49:59.113Z,100331.13
2023-04-28T05:52:26.459Z,100337.50
2023-04-28T05:54:53.761Z,100338.47
2023-04-28T05:57:21.465Z,100342.91
2023-04-28T05:59:48.985Z,100339.84
2023-04-28T06:02:16.717Z,100349.22
2023-04-28T06:04:44.490Z,100345.81
2023-04-28T06:07:12.093Z,100340.66
2023-04-28T06:09:39.305Z,100339.97
2023-04-28T06:12:07.457Z,100344.69
2023-04-28T06:14:36.196Z,100346.97
2023-04-28T06:17:04.702Z,100349.34
2023-04-28T06:19:32.423Z,100352.44
2023-04-28T06:21:59.664Z,100352.00
2023-04-28T06:24:26.931Z,100356.19
2023-04-28T06:26:56.249Z,100357.44
2023-04-28T06:29:24.122Z,100364.06
2023-04-28T06:31:52.767Z,100364.41
2023-04-28T06:34:20.228Z,100351.44
2023-04-28T06:36:47.462Z,100350.53
2023-04-28T06:39:14.632Z,100344.38
2023-04-28T06:41:41.792Z,100335.38
2023-04-28T06:44:10.790Z,100324.66
2023-04-28T06:46:39.413Z,100315.81
2023-04-28T06:49:06.758Z,100310.53
2023-04-28T06:51:34.459Z,100305.34
2023-04-28T06:54:01.819Z,100315.06
2023-04-28T06:56:29.437Z,100324.88
2023-04-28T06:58:57.296Z,100337.78
2023-04-28T07:01:25.390Z,100341.69
2023-04-28T07:03:52.833Z,100349.44
2023-04-28T07:06:20.434Z,100349.38
2023-04-28T07:08:47.571Z,100337.66
2023-04-28T07:11:15.709Z,100341.66
2023-04-28T07:13:42.895Z,100337.97
2023-04-28T07:16:11.220Z,100331.03
2023-04-28T07:18:38.463Z,100323.22
2023-04-28T07:21:06.379Z,100329.44
2023-04-28T07:23:33.641Z,100322.91
2023-04-28T07:26:00.775Z,100331.13
2023-04-28T07:28:28.536Z,100336.84
2023-04-28T07:30:55.878Z,100343.81
2023-04-28T07:33:23.164Z,100341.75
2023-04-28T07:35:52.597Z,100337.59
2023-04-28T07:38:20.527Z,100339.56
2023-04-28T07:40:48.528Z,100329.94
2023-04-28T07:43:16.185Z,100337.66
2023-04-28T07:45:45.890Z,100335.81
2023-04-28T07:48:13.352Z,100342.44
2023-04-28T07:50:40.639Z,100330.53
2023-04-28T07:53:07.841Z,100329.25
2023-04-28T07:55:35.220Z,100333.94
2023-04-28T07:58:02.740Z,100335.16
2023-04-28T08:00:30.016Z,100339.91
2023-04-28T08:02:57.795Z,100326.06
2023-04-28T08:05:25.527Z,100331.16
2023-04-28T08:07:53.160Z,100327.28
2023-04-28T08:10:21.005Z,100326.97
2023-04-28T08:12:48.341Z,100333.06
2023-04-28T08:15:16.684Z,100319.25
2023-04-28T08:17:45.617Z,100324.44
2023-04-28T08:20:15.255Z,100328.84
2023-04-28T08:22:42.494Z,100328.84
2023-04-28T08:25:10.767Z,100323.75
2023-04-28T08:27:39.887Z,100322.28
2023-04-28T08:30:10.005Z,100334.59
2023-04-28T08:32:37.288Z,100332.34
2023-04-28T08:35:04.921Z,100327.94
2023-04-28T08:37:32.116Z,100334.13
2023-04-28T08:40:02.344Z,100327.69
2023-04-28T08:42:30.576Z,100322.31
2023-04-28T08:44:59.798Z,100327.84
2023-04-28T08:47:40.440Z,100324.25
2023-04-28T08:50:09.214Z,100328.28
2023-04-28T08:52:36.785Z,100330.09
2023-04-28T08:55:17.076Z,100327.69
2023-04-28T08:57:49.662Z,100327.13
2023-04-28T09:00:17.308Z,100322.56
2023-04-28T09:02:44.645Z,100317.25
2023-04-28T09:05:14.365Z,100317.69
2023-04-28T09:07:41.784Z,100317.13
2023-04-28T09:10:25.730Z,100315.28
2023-04-28T09:12:55.856Z,100318.16
2023-04-28T09:15:41.405Z,100318.78
2023-04-28T09:18:09.144Z,100313.16
2023-04-28T09:20:37.288Z,100313.13
2023-04-28T09:23:22.525Z,100318.81
2023-04-28T09:26:07.947Z,100320.06
2023-04-28T09:28:36.435Z,100311.84
2023-04-28T09:31:04.556Z,100306.09
2023-04-28T09:33:31.858Z,100302.84
2023-04-28T09:35:59.197Z,100306.94
2023-04-28T09:38:26.472Z,100306.25
2023-04-28T09:41:01.735Z,100290.06
2023-04-28T09:43:35.177Z,100293.19
2023-04-28T09:46:05.692Z,100295.78
2023-04-28T09:48:38.385Z,100290.22
2023-04-28T09:51:08.301Z,100289.38
2023-04-28T09:53:36.125Z,100289.13
2023-04-28T09:56:08.032Z,100290.06
2023-04-28T09:58:40.690Z,100279.88
2023-04-28T10:01:11.673Z,100278.56
2023-04-28T10:03:42.654Z,100288.09
2023-04-28T10:06:10.149Z,100288.50
2023-04-28T10:08:37.852Z,100286.78
2023-04-28T10:11:05.854Z,100284.69
2023-04-28T10:13:34.549Z,100280.63
2023-04-28T10:16:03.192Z,100273.22
2023-04-28T10:18:31.889Z,100277.84
2023-04-28T10:21:03.774Z,100280.47
2023-04-28T10:23:48.012Z,100279.28
2023-04-28T10:26:21.903Z,100286.63
2023-04-28T10:28:51.936Z,100273.53
2023-04-28T10:31:22.636Z,100268.66
2023-04-28T10:33:50.569Z,100258.97
2023-04-28T10:36:52.935Z,100262.16
2023-04-28T10:39:20.727Z,100258.38
2023-04-28T10:41:49.115Z,100259.31
2023-04-28T10:44:28.530Z,100263.13
2023-04-28T10:47:09.604Z,100262.75
2023-04-28T10:49:55.555Z,100243.91
2023-04-28T10:52:40.755Z,100235.88
2023-04-28T10:55:28.750Z,100233.44
2023-04-28T10:58:16.289Z,100242.38
2023-04-28T11:00:47.908Z,100249.06
2023-04-28T11:04:07.536Z,100234.44
2023-04-28T11:06:43.231Z,100235.28
2023-04-28T11:09:14.009Z,100223.22
2023-04-28T11:12:01.198Z,100216.03
2023-04-28T11:14:37.645Z,100204.63
2023-04-28T11:17:13.334Z,100196.78
2023-04-28T11:19:48.386Z,100206.50
2023-04-28T11:22:16.531Z,100189.81
2023-04-28T11:25:00.306Z,100196.59
2023-04-28T11:27:31.313Z,100188.72
2023-04-28T11:29:59.263Z,100173.47
2023-04-28T11:32:29.524Z,100171.53
2023-04-28T11:34:57.214Z,100169.38
2023-04-28T11:37:24.844Z,100154.66
2023-04-28T11:39:52.556Z,100159.06
2023-04-28T11:42:19.925Z,100152.66
2023-04-28T11:44:52.967Z,100135.38
2023-04-28T11:47:34.688Z,100140.56
2023-04-28T11:50:03.571Z,100137.50
2023-04-28T11:52:31.394Z,100122.19
2023-04-28T11:55:03.064Z,100127.25
2023-04-28T11:57:30.227Z,100123.72
2023-04-28T12:00:40.045Z,100131.66
2023-04-28T12:03:10.787Z,100129.19
2023-04-28T12:05:45.443Z,100125.53
2023-04-28T12:08:12.717Z,100122.81
2023-04-28T12:10:39.918Z,100123.81
2023-04-28T12:13:17.119Z,100126.50
2023-04-28T12:15:44.356Z,100128.22
2023-04-28T12:18:12.631Z,100146.38
2023-04-28T12:20:40.067Z,100132.34
2023-04-28T12:23:08.568Z,100130.84
2023-04-28T12:25:47.970Z,100136.94
2023-04-28T12:28:15.252Z,100128.69
2023-04-28T12:30:43.445Z,100131.50
2023-04-28T12:33:28.960Z,100115.75
2023-04-28T12:35:59.747Z,100112.25
2023-04-28T12:38:28.325Z,100115.84
2023-04-28T12:40:56.404Z,100118.41
2023-04-28T12:43:24.800Z,100118.88
2023-04-28T12:45:54.386Z,100102.44
2023-04-28T12:48:23.994Z,100107.34
2023-04-28T12:50:51.889Z,100113.25
2023-04-28T12:53:19.036Z,100098.56
2023-04-28T12:55:46.255Z,100095.91
2023-04-28T12:58:13.396Z,100087.16
2023-04-28T13:00:41.807Z,100076.72
2023-04-28T13:03:09.214Z,100072.25
2023-04-28T13:05:36.521Z,100066.03
2023-04-28T13:08:04.823Z,100073.91
2023-04-28T13:10:32.053Z,100057.97
2023-04-28T13:12:59.223Z,100063.06
2023-04-28T13:15:27.166Z,100061.22
2023-04-28T13:17:54.474Z,100045.56
2023-04-28T13:20:21.936Z,100044.22
2023-04-28T13:22:49.057Z,100041.50
2023-04-28T13:25:16.432Z,100048.25
2023-04-28T13:27:43.658Z,100036.66
2023-04-28T13:30:12.419Z,100032.47
2023-04-28T13:32:39.785Z,100034.75
2023-04-28T13:35:08.991Z,100019.66
2023-04-28T13:37:39.008Z,100011.66
2023-04-28T13:40:07.666Z,100014.25
2023-04-28T13:42:34.849Z,100028.34
2023-04-28T13:45:02.122Z,100014.31
2023-04-28T13:47:32.511Z,100014.94
2023-04-28T13:50:00.262Z,100011.38
2023-04-28T13:52:27.409Z,100006.03
2023-04-28T13:54:54.627Z,100005.72
2023-04-28T13:57:21.882Z,100000.78
2023-04-28T13:59:49.073Z,100001.22
2023-04-28T14:02:16.383Z,99998.38
2023-04-28T14:04:48.630Z,99994.78
2023-04-28T14:07:16.837Z,99990.53
2023-04-28T14:09:44.196Z,99990.25
2023-04-28T14:12:12.266Z,99980.75
2023-04-28T14:14:40.464Z,99985.34
2023-04-28T14:17:07.956Z,99985.06
2023-04-28T14:19:35.256Z,99976.91
2023-04-28T14:22:02.621Z,99970.56
2023-04-28T14:24:29.943Z,99961.47
2023-04-28T14:26:57.827Z,99969.84
2023-04-28T14:29:24.902Z,99970.50
2023-04-28T14:31:52.150Z,99964.66
2023-04-28T14:34:19.309Z,99967.44
2023-04-28T14:36:47.867Z,99958.06
2023-04-28T14:39:15.152Z,99966.47
2023-04-28T14:41:42.325Z,99962.50
2023-04-28T14:44:09.690Z,99951.75
2023-04-28T14:46:37.145Z,99948.16
2023-04-28T14:49:05.952Z,99941.91
2023-04-28T14:51:33.230Z,99945.81
2023-04-28T14:54:00.731Z,99934.94
2023-04-28T14:56:27.962Z,99939.84
2023-04-28T14:58:55.150Z,99942.66
2023-04-28T15:01:22.513Z,99940.47
2023-04-28T15:03:49.801Z,99941.84
2023-04-28T15:06:17.054Z,99940.59
2023-04-28T15:08:44.215Z,99933.94
2023-04-28T15:11:11.778Z,99923.69
2023-04-28T15:13:40.447Z,99921.84
2023-04-28T15:16:10.056Z,99921.34
2023-04-28T15:18:37.479Z,99912.97
2023-04-28T15:21:04.933Z,99923.56
2023-04-28T15:23:32.164Z,99911.03
2023-04-28T15:25:59.710Z,99914.16
2023-04-28T15:28:28.063Z,99908.97
2023-04-28T15:30:55.324Z,99904.31
2023-04-28T15:33:22.859Z,99895.84
2023-04-28T15:35:50.240Z,99897.50
2023-04-28T15:38:18.092Z,99895.84
2023-04-28T15:40:45.897Z,99906.66
2023-04-28T15:43:13.674Z,99911.75
2023-04-28T15:45:41.046Z,99905.63
2023-04-28T15:48:10.106Z,99899.75
2023-04-28T15:50:37.626Z,99907.94
2023-04-28T15:53:05.032Z,99905.34
2023-04-28T15:55:32.373Z,99909.31
2023-04-28T15:58:00.850Z,99900.19
2023-04-28T16:00:28.283Z,99904.16
2023-04-28T16:02:55.568Z,99896.97
2023-04-28T16:05:22.956Z,99891.69
2023-04-28T16:07:50.351Z,99891.41
2023-04-28T16:10:17.936Z,99892.63
2023-04-28T16:12:45.845Z,99881.16
2023-04-28T16:15:13.994Z,99877.69
2023-04-28T16:17:42.208Z,99874.97
2023-04-28T16:20:11.548Z,99867.66
2023-04-28T16:22:41.012Z,99862.97
2023-04-28T16:25:10.450Z,99863.28
2023-04-28T16:27:38.994Z,99861.84
2023-04-28T16:30:07.634Z,99858.81
2023-04-28T16:32:38.332Z,99845.00
2023-04-28T16:35:06.607Z,99849.84
2023-04-28T16:37:36.277Z,99844.59
2023-04-28T16:40:03.647Z,99850.22
2023-04-28T16:42:31.150Z,99845.81
2023-04-28T16:44:59.675Z,99845.63
2023-04-28T16:47:27.088Z,99841.88
2023-04-28T16:49:54.492Z,99840.97
2023-04-28T16:52:21.654Z,99849.84
2023-04-28T16:54:48.998Z,99857.59
2023-04-28T16:57:16.143Z,99851.50
2023-04-28T16:59:43.282Z,99850.16
2023-04-28T17:02:10.564Z,99856.75
2023-04-28T17:04:38.424Z,99848.41
2023-04-28T17:07:06.053Z,99845.53
2023-04-28T17:09:34.144Z,99841.78
2023-04-28T17:12:01.352Z,99833.44
2023-04-28T17:14:29.579Z,99826.03
2023-04-28T17:16:56.754Z,99832.31
2023-04-28T17:19:23.967Z,99839.88
2023-04-28T17:21:52.715Z,99836.81
2023-04-28T17:24:20.051Z,99840.38
2023-04-28T17:26:47.305Z,99818.66
2023-04-28T17:29:14.483Z,99811.97
2023-04-28T17:31:41.914Z,99804.97
2023-04-28T17:34:09.129Z,99810.53
2023-04-28T17:36:36.453Z,99815.31
2023-04-28T17:39:04.534Z,99819.28
2023-04-28T17:41:32.106Z,99813.16
2023-04-28T17:43:59.393Z,99819.50
2023-04-28T17:46:27.364Z,99817.81
2023-04-28T17:48:54.434Z,99812.47
2023-04-28T17:51:21.646Z,99809.91
2023-04-28T17:53:48.963Z,99814.41
2023-04-28T17:56:16.596Z,99807.31
2023-04-28T17:58:43.841Z,99809.16
2023-04-28T18:01:11.514Z,99805.63
2023-04-28T18:03:39.819Z,99810.97
2023-04-28T18:06:07.879Z,99816.31
2023-04-28T18:08:36.608Z,99806.53
2023-04-28T18:11:09.010Z,99800.28
2023-04-28T18:13:36.364Z,99805.44
2023-04-28T18:16:05.156Z,99820.66
2023-04-28T18:18:35.299Z,99822.41
2023-04-28T18:21:03.058Z,99823.28
2023-04-28T18:23:30.477Z,99826.06
2023-04-28T18:25:57.795Z,99828.69
2023-04-28T18:28:25.033Z,99834.31
2023-04-28T18:30:52.260Z,99841.06
2023-04-28T18:33:22.169Z,99841.94
2023-04-28T18:36:06.158Z,99854.69
2023-04-28T18:38:36.081Z,99856.09
2023-04-28T18:41:17.107Z,99849.41
2023-04-28T18:43:44.655Z,99861.19
2023-04-28T18:46:13.916Z,99859.88
2023-04-28T18:48:41.232Z,99857.81
2023-04-28T18:51:08.528Z,99849.44
2023-04-28T18:53:36.927Z,99858.91
2023-04-28T18:56:04.772Z,99871.78
2023-04-28T18:58:36.975Z,99873.59
2023-04-28T19:01:04.782Z,99866.59
2023-04-28T19:03:32.394Z,99862.25
2023-04-28T19:05:59.732Z,99857.56
2023-04-28T19:08:29.844Z,99848.00
2023-04-28T19:11:00.108Z,99859.53
2023-04-28T19:13:27.368Z,99862.59
2023-04-28T19:15:56.109Z,99873.00
2023-04-28T19:18:23.473Z,99862.59
2023-04-28T19:20:52.091Z,99862.47
2023-04-28T19:23:19.270Z,99857.28
2023-04-28T19:25:46.667Z,99861.59
2023-04-28T19:28:13.803Z,99870.28
2023-04-28T19:30:40.998Z,99877.34
2023-04-28T19:33:08.228Z,99878.53
2023-04-28T19:35:35.406Z,99890.59
2023-04-28T19:38:02.646Z,99886.66
2023-04-28T19:40:30.398Z,99886.31
2023-04-28T19:42:57.549Z,99883.41
2023-04-28T19:45:24.872Z,99875.69
2023-04-28T19:47:52.910Z,99880.47
2023-04-28T19:50:20.087Z,99885.78
2023-04-28T19:52:47.514Z,99885.31
2023-04-28T19:55:18.412Z,99879.59
2023-04-28T19:57:45.977Z,99886.66
2023-04-28T20:00:13.901Z,99892.31
2023-04-28T20:02:42.759Z,99893.94
2023-04-28T20:05:10.148Z,99885.41
2023-04-28T20:07:42.503Z,99881.03
2023-04-28T20:10:10.340Z,99874.25
2023-04-28T20:12:37.509Z,99879.94
2023-04-28T20:15:06.136Z,99881.13
2023-04-28T20:17:33.350Z,99894.41
2023-04-28T20:20:00.764Z,99894.16
2023-04-28T20:22:27.898Z,99900.44
2023-04-28T20:24:56.275Z,99892.56
2023-04-28T20:27:23.387Z,99889.91
2023-04-28T20:29:50.712Z,99890.78
2023-04-28T20:32:18.128Z,99890.72
2023-04-28T20:34:45.496Z,99888.13
2023-04-28T20:37:13.471Z,99885.13
2023-04-28T20:39:40.656Z,99893.06
2023-04-28T20:42:07.818Z,99902.16
2023-04-28T20:44:35.702Z,99919.81
2023-04-28T20:47:03.520Z,99928.16
2023-04-28T20:49:31.042Z,99927.78
2023-04-28T20:52:07.315Z,99922.38
2023-04-28T20:54:38.491Z,99935.00
2023-04-28T20:57:05.823Z,99941.69
2023-04-28T20:59:33.113Z,99942.44
2023-04-28T21:02:00.962Z,99937.78
2023-04-28T21:04:28.452Z,99938.53
2023-04-28T21:06:55.945Z,99940.94
2023-04-28T21:09:26.630Z,99931.09
2023-04-28T21:11:55.004Z,99932.19
2023-04-28T21:14:22.217Z,99930.22
2023-04-28T21:16:49.779Z,99933.81
2023-04-28T21:19:17.289Z,99936.16
2023-04-28T21:21:44.798Z,99935.19
2023-04-28T21:24:12.567Z,99934.16
2023-04-28T21:26:40.660Z,99938.34
2023-04-28T21:29:09.256Z,99947.91
2023-04-28T21:31:36.523Z,99942.47
2023-04-28T21:34:03.943Z,99952.81
2023-04-28T21:36:31.287Z,99943.81
2023-04-28T21:38:58.689Z,99955.56
2023-04-28T21:41:26.124Z,99958.25
2023-04-28T21:43:53.305Z,99951.53
2023-04-28T21:46:20.657Z,99956.69
2023-04-28T21:48:47.975Z,99954.16
2023-04-28T21:51:15.103Z,99955.59
2023-04-28T21:53:42.571Z,99960.75
2023-04-28T21:56:09.752Z,99964.56
2023-04-28T21:58:37.182Z,99962.78
2023-04-28T22:01:05.285Z,99949.59
2023-04-28T22:03:35.315Z,99950.38
2023-04-28T22:06:03.282Z,99965.44
2023-04-28T22:08:31.685Z,99962.88
2023-04-28T22:10:58.948Z,99958.66
2023-04-28T22:13:26.274Z,99963.03
2023-04-28T22:15:53.492Z,99963.81
2023-04-28T22:18:20.626Z,99962.25
2023-04-28T22:20:49.975Z,99971.72
2023-04-28T22:23:17.266Z,99969.00
2023-04-28T22:25:45.056Z,99977.63
2023-04-28T22:28:12.231Z,99968.88
2023-04-28T22:30:39.695Z,99967.06
2023-04-28T22:33:06.935Z,99950.53
2023-04-28T22:35:34.067Z,99944.22
2023-04-28T22:38:01.363Z,99943.06
2023-04-28T22:40:28.567Z,99947.25
2023-04-28T22:42:55.717Z,99946.56
2023-04-28T22:45:22.948Z,99952.31
2023-04-28T22:47:50.111Z,99959.16
2023-04-28T22:50:17.300Z,99966.91
2023-04-28T22:52:44.451Z,99963.31
2023-04-28T22:55:12.641Z,99951.72
2023-04-28T22:57:40.686Z,99951.72
2023-04-28T23:00:09.277Z,99950.00
2023-04-28T23:02:36.802Z,99946.28
2023-04-28T23:05:04.736Z,99948.97
2023-04-28T23:07:31.945Z,99952.63
2023-04-28T23:09:59.176Z,99947.31
2023-04-28T23:12:26.667Z,99942.03
2023-04-28T23:14:54.498Z,99936.81
2023-04-28T23:17:21.774Z,99942.09
2023-04-28T23:19:49.168Z,99933.31
2023-04-28T23:22:16.477Z,99925.25
2023-04-28T23:24:43.931Z,99934.38
2023-04-28T23:27:11.215Z,99928.88
2023-04-28T23:29:38.474Z,99915.56
2023-04-28T23:32:06.106Z,99917.47
2023-04-28T23:34:33.285Z,99915.28
2023-04-28T23:37:01.073Z,99916.19
2023-04-28T23:39:30.088Z,99905.34
2023-04-28T23:41:58.555Z,99909.94
2023-04-28T23:44:25.843Z,99894.69
2023-04-28T23:46:54.740Z,99893.69
2023-04-28T23:49:23.747Z,99886.63
2023-04-28T23:51:50.990Z,99877.88
2023-04-28T23:54:18.144Z,99889.06
2023-04-28T23:56:45.344Z,99885.44
2023-04-28T23:59:12.500Z,99884.66
